Time;durP1;ratioP1;P1;durP2;ratioP2;P2;SDS_P1;SDS_P2;PMS_P1;PMS_P2;Temp;Humidity;BMP_temperature;BMP_pressure;BME280_temperature;BME280_humidity;BME280_pressure;Samples;Min_cycle;Max_cycle;Signal;HPM_P1;HPM_P2
2021/12/14 20:05:51;;;;;;;39.22;20.17;;;;;;;19.33;43.90;101567.06;2102856;27;20408;-75
2021/12/14 20:07:03;;;;;;;32.38;20.83;;;;;;;19.51;43.64;101577.88;2104083;28;20055;-76
2021/12/14 20:08:17;;;;;;;31.63;21.60;;;;;;;19.59;43.49;101577.81;2104604;28;20051;-74
2021/12/14 20:09:26;;;;;;;38.67;23.35;;;;;;;19.72;43.72;101586.09;2099136;28;20040;-75
2021/12/14 20:10:32;;;;;;;30.98;23.05;;;;;;;19.80;43.60;101591.50;2097656;28;20059;-77
2021/12/14 20:11:41;;;;;;;48.00;23.90;;;;;;;19.90;43.43;101582.88;2097674;28;20048;-74
2021/12/14 20:12:48;;;;;;;32.10;20.95;;;;;;;20.01;43.27;101576.97;2098118;28;20052;-76
2021/12/14 20:13:57;;;;;;;39.90;24.75;;;;;;;20.12;42.95;101589.16;2097728;28;20044;-75
2021/12/14 20:15:07;;;;;;;32.80;21.35;;;;;;;20.22;42.92;101585.97;2098661;28;20063;-73
2021/12/14 20:16:15;;;;;;;33.80;22.15;;;;;;;20.30;42.93;101585.06;2097362;28;20071;-76
2021/12/14 20:17:45;;;;;;;31.00;23.50;;;;;;;20.42;42.69;101580.72;2099358;28;20048;-77
2021/12/14 20:18:54;;;;;;;34.70;23.95;;;;;;;20.50;42.56;101593.56;2096892;28;20051;-74
2021/12/14 20:20:00;;;;;;;32.28;23.27;;;;;;;20.57;42.69;101591.03;2097953;28;20044;-72
2021/12/14 20:21:11;;;;;;;33.30;23.67;;;;;;;20.65;42.71;101589.34;2098932;28;20056;-72
2021/12/14 20:22:17;;;;;;;31.67;24.67;;;;;;;20.63;42.50;101575.94;2098923;28;20040;-74
2021/12/14 20:23:27;;;;;;;33.30;24.05;;;;;;;20.74;42.39;101585.38;2096786;28;20551;-76
2021/12/14 20:24:37;;;;;;;35.88;24.23;;;;;;;20.86;42.50;101594.75;2096182;28;20048;-77
2021/12/14 20:25:50;;;;;;;34.08;25.58;;;;;;;20.93;42.38;101603.19;2098045;28;20048;-78
2021/12/14 20:27:03;;;;;;;33.15;24.40;;;;;;;20.96;42.29;101599.78;2098082;28;20063;-70
2021/12/14 20:28:13;;;;;;;26.08;18.67;;;;;;;20.82;39.73;101598.19;2089479;28;20384;-78
2021/12/14 20:29:23;;;;;;;27.88;19.50;;;;;;;20.68;39.52;101605.94;2091435;28;20068;-74
2021/12/14 20:30:28;;;;;;;27.10;19.67;;;;;;;20.48;40.25;101606.81;2091214;28;20368;-75
2021/12/14 20:31:40;;;;;;;25.20;18.40;;;;;;;20.32;39.77;101610.22;2090407;28;20048;-73
2021/12/14 20:32:50;;;;;;;27.38;19.17;;;;;;;20.20;39.88;101607.44;2089122;28;20060;-74
2021/12/14 20:33:58;;;;;;;22.45;17.60;;;;;;;20.04;39.75;101607.28;2088606;28;20053;-71
2021/12/14 20:35:14;;;;;;;30.17;18.13;;;;;;;19.88;40.31;101609.81;2089480;28;20059;-72
2021/12/14 20:36:27;;;;;;;24.13;16.35;;;;;;;19.78;40.04;101596.53;2087288;28;20507;-70
2021/12/14 20:37:34;;;;;;;20.40;16.00;;;;;;;19.72;40.21;101603.34;2090869;28;20053;-71
2021/12/14 20:38:40;;;;;;;23.42;18.60;;;;;;;19.65;40.86;101603.09;2097744;28;20684;-71
2021/12/14 20:39:54;;;;;;;23.25;17.73;;;;;;;19.57;40.52;101610.25;2093995;28;20551;-72
2021/12/14 20:41:01;;;;;;;25.67;18.25;;;;;;;19.51;40.20;101610.78;2088787;28;20166;-72
2021/12/14 20:42:15;;;;;;;22.90;18.67;;;;;;;19.47;40.33;101613.38;2087116;28;20753;-72
2021/12/14 20:43:37;;;;;;;20.75;16.90;;;;;;;19.42;40.81;101610.84;2089064;28;20064;-71
2021/12/14 20:45:11;;;;;;;22.02;16.05;;;;;;;19.34;40.42;101608.97;2089211;28;20059;-69
2021/12/14 20:46:19;;;;;;;20.73;15.63;;;;;;;19.29;40.57;101618.19;2088146;28;20057;-70
2021/12/14 20:47:29;;;;;;;21.40;15.20;;;;;;;19.31;40.55;101620.59;2090977;28;20534;-70
2021/12/14 20:48:43;;;;;;;20.77;14.13;;;;;;;19.30;40.44;101614.31;2091843;28;20061;-73
2021/12/14 20:49:50;;;;;;;18.88;14.30;;;;;;;19.33;40.67;101623.81;2091440;28;20053;-75
2021/12/14 20:51:01;;;;;;;18.95;13.30;;;;;;;19.31;40.09;101623.31;2090837;28;20050;-71
2021/12/14 20:52:20;;;;;;;19.60;14.82;;;;;;;19.27;41.00;101628.66;2087885;28;20539;-69
2021/12/14 20:53:27;;;;;;;18.95;13.88;;;;;;;19.23;40.85;101629.69;2089237;28;20147;-70
2021/12/14 20:54:33;;;;;;;18.30;12.90;;;;;;;19.15;40.37;101634.81;2090918;28;20048;-71
2021/12/14 20:55:46;;;;;;;24.83;16.27;;;;;;;19.12;40.33;101624.53;2091222;28;20051;-70
2021/12/14 20:56:54;;;;;;;19.60;13.93;;;;;;;19.10;40.69;101637.78;2090321;28;20072;-68
2021/12/14 20:58:00;;;;;;;29.75;21.42;;;;;;;19.12;40.96;101634.69;2090087;28;20056;-69
2021/12/14 20:59:13;;;;;;;23.25;14.18;;;;;;;19.13;40.70;101626.16;2090925;28;20057;-72
2021/12/14 21:00:22;;;;;;;19.73;13.75;;;;;;;19.14;40.43;101637.91;2088153;28;20057;-73
2021/12/14 21:01:31;;;;;;;22.13;14.63;;;;;;;19.09;40.88;101640.81;2090415;28;20045;-72
2021/12/14 21:02:36;;;;;;;22.30;16.65;;;;;;;19.08;40.81;101634.56;2090485;28;20052;-74
2021/12/14 21:03:46;;;;;;;21.27;15.25;;;;;;;19.10;40.63;101636.94;2091001;28;20061;-75
2021/12/14 21:04:59;;;;;;;14.57;10.75;;;;;;;19.12;40.51;101634.69;2090921;28;20056;-72
2021/12/14 21:06:16;;;;;;;20.55;12.07;;;;;;;19.14;40.75;101646.13;2090125;28;20055;-72
2021/12/14 21:07:30;;;;;;;16.35;12.38;;;;;;;19.09;40.50;101654.53;2087789;28;20781;-71
2021/12/14 21:08:36;;;;;;;15.15;11.10;;;;;;;19.13;40.46;101647.25;2088431;28;20068;-72
2021/12/14 21:09:45;;;;;;;15.68;11.10;;;;;;;19.13;40.76;101658.19;2088951;28;20053;-74
2021/12/14 21:10:53;;;;;;;13.73;10.55;;;;;;;19.16;40.38;101652.09;2086816;28;20053;-73
2021/12/14 21:13:33;;;;;;;15.77;11.23;;;;;;;19.19;40.26;101654.16;2088205;28;20061;-71
2021/12/14 21:14:44;;;;;;;13.75;10.70;;;;;;;19.19;40.98;101656.91;2088091;28;20052;-71
2021/12/14 21:15:51;;;;;;;14.57;9.90;;;;;;;19.17;40.37;101642.75;2089023;28;20107;-71
2021/12/14 21:19:45;;;;;;;17.00;11.32;;;;;;;19.05;40.52;101650.84;2085268;28;20072;-72
2021/12/14 21:20:50;;;;;;;17.25;12.48;;;;;;;19.03;40.52;101653.09;2085641;28;20097;-73
2021/12/14 21:21:58;;;;;;;13.20;9.93;;;;;;;19.04;40.34;101657.47;2083076;28;20072;-74
2021/12/14 21:23:08;;;;;;;15.85;11.27;;;;;;;18.97;40.61;101647.81;2085456;28;20476;-74
2021/12/14 21:24:24;;;;;;;15.77;9.88;;;;;;;18.99;40.84;101651.03;2082755;28;20063;-72
2021/12/14 21:25:33;;;;;;;17.50;9.38;;;;;;;19.03;40.85;101642.94;2084885;28;20041;-72
2021/12/14 21:26:38;;;;;;;15.15;9.02;;;;;;;19.00;40.40;101638.13;2081700;28;20060;-72
2021/12/14 21:28:01;;;;;;;13.77;9.95;;;;;;;19.09;40.74;101646.31;2083764;28;20053;-71
2021/12/14 21:29:29;;;;;;;12.10;8.75;;;;;;;19.12;40.52;101638.22;2084151;28;20060;-72
2021/12/14 21:30:43;;;;;;;12.60;8.10;;;;;;;19.11;39.99;101630.34;2082712;28;20053;-74
2021/12/14 21:31:49;;;;;;;12.30;8.52;;;;;;;19.12;40.20;101634.69;2084654;28;20061;-74
2021/12/14 21:33:03;;;;;;;12.43;8.43;;;;;;;19.11;40.14;101633.09;2084113;28;20061;-75
2021/12/14 21:34:19;;;;;;;90.47;33.08;;;;;;;19.09;40.37;101625.19;2084809;28;20068;-72
2021/12/14 21:35:29;;;;;;;184.38;67.15;;;;;;;19.11;40.08;101624.88;2084190;28;20515;-73
2021/12/14 21:36:44;;;;;;;97.85;38.17;;;;;;;19.11;40.22;101633.88;2083770;28;20049;-74
2021/12/14 21:38:22;;;;;;;91.70;36.63;;;;;;;19.09;40.37;101625.19;2084631;28;20497;-77
2021/12/14 21:39:29;;;;;;;79.47;31.92;;;;;;;19.07;40.39;101626.66;2082903;28;20927;-70
2021/12/14 21:40:40;;;;;;;72.13;29.85;;;;;;;19.09;40.53;101621.66;2076675;28;20057;-69
2021/12/14 21:41:50;;;;;;;64.10;27.73;;;;;;;19.09;40.65;101622.44;2084040;28;20049;-70
2021/12/14 21:42:55;;;;;;;57.05;23.52;;;;;;;19.14;40.60;101616.00;2082060;28;20057;-70
2021/12/14 21:44:04;;;;;;;55.75;24.60;;;;;;;19.18;40.79;101622.44;2084147;28;20064;-72
2021/12/14 21:45:22;;;;;;;55.33;25.73;;;;;;;19.17;40.72;101626.31;2083973;28;20520;-72
2021/12/14 21:46:47;;;;;;;53.90;22.07;;;;;;;19.16;40.29;101624.69;2080844;28;20411;-72
2021/12/14 21:47:51;;;;;;;44.45;18.80;;;;;;;19.15;40.58;101617.59;2078306;28;20346;-73
2021/12/14 21:49:01;;;;;;;40.80;19.67;;;;;;;19.19;40.66;101624.88;2085503;28;20056;-73
2021/12/14 21:50:08;;;;;;;;;;;;;;;19.12;40.51;101621.00;2085223;28;20185;-73
2021/12/14 21:51:17;;;;;;;41.17;19.05;;;;;;;19.10;40.63;101620.50;2084407;28;19928;-75
2021/12/14 21:52:23;;;;;;;38.28;16.90;;;;;;;19.12;40.13;101630.00;2078314;28;20064;-73
2021/12/14 21:53:29;;;;;;;33.78;16.05;;;;;;;19.14;39.99;101621.47;2086508;28;20045;-73
2021/12/14 21:54:42;;;;;;;36.47;15.77;;;;;;;19.12;39.93;101612.78;2084234;28;20417;-72
2021/12/14 21:55:49;;;;;;;38.47;16.27;;;;;;;19.18;40.10;101622.44;2085983;28;20053;-73
2021/12/14 21:56:56;;;;;;;31.30;15.70;;;;;;;19.20;40.06;101620.19;2084159;28;20064;-72
2021/12/14 21:58:00;;;;;;;30.50;15.13;;;;;;;19.16;40.26;101614.56;2085864;28;20053;-72
2021/12/14 21:59:08;;;;;;;34.17;16.38;;;;;;;19.15;40.25;101618.38;2085891;28;20057;-73
2021/12/14 22:00:16;;;;;;;33.25;15.93;;;;;;;19.12;39.99;101621.78;2084047;28;20412;-73
2021/12/14 22:01:23;;;;;;;30.52;14.70;;;;;;;19.15;40.29;101617.59;2083869;28;20053;-75
2021/12/14 22:02:30;;;;;;;28.33;13.57;;;;;;;19.13;39.71;101623.41;2085247;28;20092;-74
2021/12/14 22:03:34;;;;;;;30.08;14.48;;;;;;;19.12;40.16;101630.00;2085893;28;20060;-74
2021/12/14 22:04:42;;;;;;;29.90;14.57;;;;;;;19.14;40.21;101616.00;2086171;28;20254;-75
2021/12/14 22:05:46;;;;;;;26.23;12.98;;;;;;;19.15;39.89;101628.56;2086872;28;20044;-75
2021/12/14 22:06:54;;;;;;;28.50;14.52;;;;;;;19.13;40.13;101606.16;2083543;28;20040;-75
2021/12/14 22:07:59;;;;;;;21.52;11.02;;;;;;;19.19;39.58;101619.38;2086231;28;20053;-75
2021/12/14 22:09:06;;;;;;;28.20;14.63;;;;;;;19.14;39.62;101621.47;2085953;28;20068;-76
2021/12/14 22:10:15;;;;;;;25.70;12.80;;;;;;;19.13;40.04;101626.16;2087284;28;20056;-76
2021/12/14 22:11:21;;;;;;;30.42;17.35;;;;;;;19.13;39.94;101623.41;2085080;28;20052;-75
2021/12/14 22:12:27;;;;;;;26.85;14.10;;;;;;;19.16;39.96;101627.44;2086171;28;20053;-75
2021/12/14 22:13:36;;;;;;;23.15;11.50;;;;;;;19.15;39.93;101618.38;2084250;28;20056;-75
2021/12/14 22:14:40;;;;;;;27.27;13.18;;;;;;;19.12;40.07;101618.25;2085730;28;20060;-74
2021/12/14 22:15:51;;;;;;;22.65;11.65;;;;;;;19.15;39.88;101628.56;2086292;28;20045;-74
2021/12/14 22:17:06;;;;;;;20.30;10.80;;;;;;;19.17;39.69;101638.06;2080773;28;20045;-74
2021/12/14 22:18:09;;;;;;;21.17;10.80;;;;;;;19.05;40.16;101637.94;2085087;28;20486;-74
2021/12/14 22:19:20;;;;;;;20.67;10.80;;;;;;;19.05;39.98;101645.38;2084113;28;20064;-74
2021/12/14 22:20:30;;;;;;;21.00;10.55;;;;;;;19.01;40.16;101649.91;2086041;28;20164;-74
2021/12/14 22:21:33;;;;;;;21.75;10.75;;;;;;;18.99;39.98;101651.03;2085792;28;20797;-74
2021/12/14 22:22:41;;;;;;;19.30;10.63;;;;;;;19.02;39.98;101652.31;2085903;28;20053;-73
2021/12/14 22:23:45;;;;;;;21.00;10.68;;;;;;;19.05;40.25;101656.31;2085974;28;20361;-74
2021/12/14 22:24:52;;;;;;;20.67;11.55;;;;;;;19.05;39.93;101653.59;2085808;28;20049;-74
2021/12/14 22:26:01;;;;;;;19.92;10.60;;;;;;;19.03;40.31;101655.84;2085335;28;20064;-75
2021/12/14 22:27:06;;;;;;;15.10;9.50;;;;;;;19.05;39.79;101653.59;2083218;28;20049;-72
2021/12/14 22:28:10;;;;;;;19.55;9.25;;;;;;;19.06;40.15;101653.25;2084812;28;20041;-73
2021/12/14 22:29:19;;;;;;;17.58;9.57;;;;;;;19.02;40.00;101656.97;2085088;28;20059;-71
2021/12/14 22:30:26;;;;;;;19.13;9.55;;;;;;;19.03;40.12;101659.38;2085311;28;20516;-72
2021/12/14 22:31:31;;;;;;;18.48;8.75;;;;;;;19.06;39.80;101657.91;2082715;28;20157;-72
2021/12/14 22:32:36;;;;;;;17.60;9.15;;;;;;;19.10;39.98;101656.13;2084381;28;20056;-73
2021/12/14 22:33:41;;;;;;;14.60;8.18;;;;;;;19.10;39.93;101658.84;2085509;28;20049;-70
2021/12/14 22:34:50;;;;;;;19.08;9.55;;;;;;;19.09;39.94;101660.00;2086109;28;20120;-71
2021/12/14 22:35:56;;;;;;;17.70;8.73;;;;;;;19.07;40.28;101671.28;2083923;28;20064;-69
2021/12/14 22:36:59;;;;;;;19.65;10.25;;;;;;;19.02;39.90;101656.97;2085147;28;20049;-69
2021/12/14 22:38:05;;;;;;;13.73;8.15;;;;;;;19.05;39.92;101653.59;2084645;28;20049;-70
2021/12/14 22:39:11;;;;;;;15.50;9.25;;;;;;;19.01;40.38;101664.41;2085259;28;20072;-72
2021/12/14 22:40:21;;;;;;;17.65;8.95;;;;;;;19.03;39.86;101669.53;2084342;28;20052;-73
2021/12/14 22:42:00;;;;;;;14.35;7.97;;;;;;;19.04;39.97;101658.25;2080603;28;20053;-72
2021/12/14 22:44:28;;;;;;;19.88;10.45;;;;;;;19.06;40.35;101661.47;2047065;28;20089;-74
2021/12/14 22:45:35;;;;;;;14.57;7.90;;;;;;;19.10;40.21;101658.84;2082350;28;20052;-74
2021/12/14 22:46:43;;;;;;;18.58;8.35;;;;;;;19.10;40.02;101669.81;2086294;28;20056;-74
2021/12/14 22:47:48;;;;;;;12.63;7.22;;;;;;;19.14;39.89;101665.31;2086014;28;20413;-75
2021/12/14 22:48:53;;;;;;;13.18;7.47;;;;;;;19.13;39.74;101669.16;2083871;28;20057;-74
2021/12/14 22:49:59;;;;;;;20.73;9.57;;;;;;;18.88;39.75;101624.31;2085961;28;20500;-73
2021/12/14 22:51:02;;;;;;;18.77;9.55;;;;;;;19.12;40.20;101662.06;2085306;28;20064;-73
2021/12/14 22:52:13;;;;;;;16.80;8.73;;;;;;;19.11;39.98;101657.75;2086459;28;20072;-76
2021/12/14 22:53:19;;;;;;;17.42;10.13;;;;;;;19.05;40.00;101661.78;2084776;28;20060;-76
2021/12/14 22:54:22;;;;;;;13.45;8.10;;;;;;;19.05;39.77;101665.34;2086546;28;20377;-75
2021/12/14 22:55:27;;;;;;;13.75;7.50;;;;;;;19.06;39.96;101663.41;2085750;28;20132;-73
2021/12/14 22:56:32;;;;;;;15.95;10.13;;;;;;;19.03;39.81;101658.56;2084980;28;20505;-73
2021/12/14 22:58:59;;;;;;;14.55;8.35;;;;;;;19.02;39.56;101656.97;2084183;28;20492;-73
2021/12/14 23:00:10;;;;;;;17.25;9.13;;;;;;;19.01;39.84;101652.66;2086132;28;20381;-72
2021/12/14 23:01:20;;;;;;;16.60;7.93;;;;;;;19.04;39.72;101655.53;2080252;28;20052;-72
2021/12/14 23:03:49;;;;;;;13.33;8.67;;;;;;;18.98;39.77;101654.09;2094688;28;20051;-73
2021/12/14 23:04:52;;;;;;;14.05;7.75;;;;;;;18.95;39.78;101641.88;2090155;28;20713;-73
2021/12/14 23:05:58;;;;;;;11.43;7.47;;;;;;;18.98;39.79;101660.38;2083362;28;20060;-73
2021/12/14 23:07:05;;;;;;;15.57;8.13;;;;;;;18.92;39.27;101658.94;2086360;28;20056;-73
2021/12/14 23:08:13;;;;;;;13.23;6.88;;;;;;;18.90;39.90;101661.19;2085684;28;20496;-73
2021/12/14 23:09:20;;;;;;;9.45;6.00;;;;;;;18.92;39.84;101660.88;2083426;28;20056;-74
2021/12/14 23:10:26;;;;;;;11.30;6.93;;;;;;;18.93;39.75;101660.56;2085718;28;20485;-74
2021/12/14 23:11:32;;;;;;;13.85;9.13;;;;;;;18.94;40.09;101662.16;2085452;28;20064;-74
2021/12/14 23:12:43;;;;;;;10.98;6.80;;;;;;;18.99;39.75;101655.69;2083411;28;20059;-75
2021/12/14 23:13:51;;;;;;;13.63;6.93;;;;;;;19.01;39.54;101660.84;2085075;28;20060;-76
2021/12/14 23:14:58;;;;;;;15.27;8.15;;;;;;;18.97;39.70;101661.50;2083485;28;20072;-73
2021/12/14 23:16:09;;;;;;;12.23;7.68;;;;;;;19.01;39.54;101669.88;2085355;28;20749;-73
2021/12/14 23:17:16;;;;;;;14.15;7.35;;;;;;;19.00;39.76;101662.78;2085907;28;20055;-73
2021/12/14 23:18:28;;;;;;;13.48;8.45;;;;;;;19.03;39.73;101667.59;2084159;28;20060;-76
2021/12/14 23:20:55;;;;;;;9.00;5.80;;;;;;;19.02;39.54;101668.72;2082534;28;20064;-77
2021/12/14 23:21:59;;;;;;;12.02;6.80;;;;;;;18.94;39.77;101666.81;2083548;28;20053;-76
2021/12/14 23:23:03;;;;;;;9.40;5.72;;;;;;;18.93;39.70;101671.50;2085750;28;20045;-73
2021/12/14 23:24:07;;;;;;;10.35;6.70;;;;;;;18.90;39.66;101680.38;2085627;28;20381;-72
2021/12/14 23:25:16;;;;;;;11.68;6.85;;;;;;;18.87;39.32;101670.06;2085291;28;20053;-73
2021/12/14 23:26:28;;;;;;;14.65;6.97;;;;;;;18.82;39.83;101667.53;2083811;28;20053;-72
2021/12/14 23:27:34;;;;;;;12.60;5.78;;;;;;;18.80;40.07;101675.25;2083979;28;20260;-73
2021/12/14 23:28:44;;;;;;;10.23;6.53;;;;;;;18.81;39.76;101679.59;2085235;28;20049;-72
2021/12/14 23:29:51;;;;;;;9.63;5.70;;;;;;;18.81;40.06;101674.13;2085631;28;20095;-72
2021/12/14 23:31:00;;;;;;;8.52;5.43;;;;;;;18.83;39.71;101671.06;2085007;28;20064;-72
2021/12/14 23:32:05;;;;;;;11.07;6.00;;;;;;;18.79;40.31;101673.66;2083599;28;20056;-72
2021/12/14 23:33:11;;;;;;;10.82;6.00;;;;;;;18.88;40.20;101681.81;2084853;28;20519;-72
2021/12/14 23:34:13;;;;;;;8.88;5.38;;;;;;;18.89;40.28;101680.72;2085514;28;20057;-72
2021/12/14 23:35:21;;;;;;;9.68;5.55;;;;;;;18.83;39.59;101666.41;2092520;28;20044;-72
2021/12/14 23:36:27;;;;;;;11.85;5.97;;;;;;;18.91;39.97;101675.69;2091317;28;20044;-72
2021/12/14 23:37:31;;;;;;;12.50;5.93;;;;;;;18.84;40.12;101678.94;2091737;28;20055;-71
2021/12/14 23:38:38;;;;;;;16.98;9.50;;;;;;;18.86;40.07;101679.44;2085225;28;20036;-74
2021/12/14 23:39:43;;;;;;;10.52;6.13;;;;;;;18.87;39.92;101677.50;2083148;28;20052;-74
2021/12/14 23:40:53;;;;;;;11.65;5.20;;;;;;;18.92;39.89;101680.84;2084772;28;20057;-71
2021/12/14 23:43:31;;;;;;;9.57;5.40;;;;;;;18.90;40.53;101679.56;2082805;28;20053;-69
2021/12/14 23:44:39;;;;;;;10.63;5.78;;;;;;;18.87;40.65;101678.28;2083045;28;21324;-77
2021/12/14 23:45:59;;;;;;;12.00;7.13;;;;;;;18.82;40.59;101675.75;2084615;28;20057;-76
2021/12/14 23:48:25;;;;;;;13.43;7.07;;;;;;;18.93;40.06;101685.19;2082842;28;20607;-76
2021/12/14 23:49:29;;;;;;;9.27;5.55;;;;;;;18.94;40.52;101689.56;2083945;28;20056;-76
2021/12/14 23:50:44;;;;;;;8.50;5.90;;;;;;;18.93;40.47;101676.97;2086150;28;20079;-76
2021/12/14 23:51:48;;;;;;;10.73;6.20;;;;;;;18.97;40.39;101688.91;2076911;28;20053;-70
2021/12/14 23:52:53;;;;;;;9.05;5.18;;;;;;;18.99;40.00;101683.88;2076090;28;20045;-70
2021/12/14 23:53:58;;;;;;;9.05;5.13;;;;;;;19.02;40.52;101673.41;2076962;28;20528;-71
2021/12/14 23:55:07;;;;;;;7.45;4.63;;;;;;;19.07;40.09;101675.94;2077294;28;20058;-70
2021/12/14 23:56:11;;;;;;;8.82;4.70;;;;;;;19.08;40.32;101675.63;2076919;28;20049;-72
2021/12/14 23:57:15;;;;;;;8.23;4.38;;;;;;;19.07;39.76;101670.47;2077868;28;20062;-75
2021/12/14 23:58:25;;;;;;;9.48;4.97;;;;;;;19.10;39.76;101687.06;2077664;28;20076;-74
2021/12/14 23:59:30;;;;;;;7.13;4.35;;;;;;;19.09;40.16;101681.91;2078213;28;20501;-74
